sensor_id;sensor_type;location;lat;lon;timestamp;temperature;humidity
20422;DHT22;10370;53.102;18.034;2023-07-08T00:03:52;16.00;99.90
20422;DHT22;10370;53.102;18.034;2023-07-08T00:09:16;15.70;99.90
20422;DHT22;10370;53.102;18.034;2023-07-08T00:14:39;15.50;99.90
20422;DHT22;10370;53.102;18.034;2023-07-08T00:25:51;15.10;99.90
20422;DHT22;10370;53.102;18.034;2023-07-08T00:31:14;15.10;99.90
20422;DHT22;10370;53.102;18.034;2023-07-08T00:36:40;15.10;99.90
20422;DHT22;10370;53.102;18.034;2023-07-08T00:42:13;15.00;99.90
20422;DHT22;10370;53.102;18.034;2023-07-08T00:47:37;14.70;99.90
20422;DHT22;10370;53.102;18.034;2023-07-08T00:53:22;14.70;99.90
20422;DHT22;10370;53.102;18.034;2023-07-08T01:10:09;14.50;99.90
20422;DHT22;10370;53.102;18.034;2023-07-08T01:15:41;14.40;99.90
20422;DHT22;10370;53.102;18.034;2023-07-08T01:21:29;14.20;99.90
20422;DHT22;10370;53.102;18.034;2023-07-08T01:26:49;14.00;99.90
20422;DHT22;10370;53.102;18.034;2023-07-08T01:32:13;13.80;99.90
20422;DHT22;10370;53.102;18.034;2023-07-08T01:37:51;13.60;99.90
20422;DHT22;10370;53.102;18.034;2023-07-08T01:43:14;13.40;99.90
20422;DHT22;10370;53.102;18.034;2023-07-08T01:48:39;13.30;99.90
20422;DHT22;10370;53.102;18.034;2023-07-08T01:54:02;13.10;99.90
20422;DHT22;10370;53.102;18.034;2023-07-08T01:59:25;13.00;99.90
20422;DHT22;10370;53.102;18.034;2023-07-08T02:04:48;13.00;99.90
20422;DHT22;10370;53.102;18.034;2023-07-08T02:10:10;13.00;99.90
20422;DHT22;10370;53.102;18.034;2023-07-08T02:15:33;13.00;99.90
20422;DHT22;10370;53.102;18.034;2023-07-08T02:20:56;13.00;99.90
20422;DHT22;10370;53.102;18.034;2023-07-08T02:26:18;12.90;99.90
20422;DHT22;10370;53.102;18.034;2023-07-08T02:31:43;12.90;99.90
20422;DHT22;10370;53.102;18.034;2023-07-08T02:37:06;12.90;99.90
20422;DHT22;10370;53.102;18.034;2023-07-08T02:42:29;12.90;99.90
20422;DHT22;10370;53.102;18.034;2023-07-08T02:47:52;12.90;99.90
20422;DHT22;10370;53.102;18.034;2023-07-08T02:53:14;12.90;99.90
20422;DHT22;10370;53.102;18.034;2023-07-08T02:58:37;12.90;99.90
20422;DHT22;10370;53.102;18.034;2023-07-08T03:04:00;12.90;99.90
20422;DHT22;10370;53.102;18.034;2023-07-08T03:09:23;13.00;99.90
20422;DHT22;10370;53.102;18.034;2023-07-08T03:14:46;12.90;99.90
20422;DHT22;10370;53.102;18.034;2023-07-08T03:20:10;12.90;99.90
20422;DHT22;10370;53.102;18.034;2023-07-08T03:25:35;13.00;99.90
20422;DHT22;10370;53.102;18.034;2023-07-08T03:30:58;13.30;99.90
20422;DHT22;10370;53.102;18.034;2023-07-08T03:36:21;13.60;99.90
20422;DHT22;10370;53.102;18.034;2023-07-08T03:41:48;13.60;99.90
20422;DHT22;10370;53.102;18.034;2023-07-08T03:47:10;13.60;99.90
20422;DHT22;10370;53.102;18.034;2023-07-08T03:52:33;13.50;99.90
20422;DHT22;10370;53.102;18.034;2023-07-08T03:57:55;13.70;99.90
20422;DHT22;10370;53.102;18.034;2023-07-08T04:03:18;13.70;99.90
20422;DHT22;10370;53.102;18.034;2023-07-08T04:08:41;13.90;99.90
20422;DHT22;10370;53.102;18.034;2023-07-08T04:14:04;14.10;99.90
20422;DHT22;10370;53.102;18.034;2023-07-08T04:19:27;14.30;99.90
20422;DHT22;10370;53.102;18.034;2023-07-08T04:24:50;14.40;99.90
20422;DHT22;10370;53.102;18.034;2023-07-08T04:30:30;14.90;99.90
20422;DHT22;10370;53.102;18.034;2023-07-08T04:35:53;15.10;99.90
20422;DHT22;10370;53.102;18.034;2023-07-08T04:41:16;15.40;99.90
20422;DHT22;10370;53.102;18.034;2023-07-08T04:46:47;15.90;99.90
20422;DHT22;10370;53.102;18.034;2023-07-08T04:52:10;16.70;99.90
20422;DHT22;10370;53.102;18.034;2023-07-08T04:57:33;17.80;99.90
20422;DHT22;10370;53.102;18.034;2023-07-08T05:02:55;19.00;99.90
20422;DHT22;10370;53.102;18.034;2023-07-08T05:08:18;20.20;99.90
20422;DHT22;10370;53.102;18.034;2023-07-08T05:13:40;21.50;99.90
20422;DHT22;10370;53.102;18.034;2023-07-08T05:19:03;22.90;99.90
20422;DHT22;10370;53.102;18.034;2023-07-08T05:24:26;24.20;99.90
20422;DHT22;10370;53.102;18.034;2023-07-08T05:29:48;25.20;99.90
20422;DHT22;10370;53.102;18.034;2023-07-08T05:35:11;26.60;99.90
20422;DHT22;10370;53.102;18.034;2023-07-08T05:40:33;27.50;99.90
20422;DHT22;10370;53.102;18.034;2023-07-08T05:45:59;28.30;99.90
20422;DHT22;10370;53.102;18.034;2023-07-08T06:02:17;30.50;98.50
20422;DHT22;10370;53.102;18.034;2023-07-08T06:07:40;31.50;95.30
20422;DHT22;10370;53.102;18.034;2023-07-08T06:13:03;31.20;93.10
20422;DHT22;10370;53.102;18.034;2023-07-08T06:18:27;31.40;91.90
20422;DHT22;10370;53.102;18.034;2023-07-08T06:23:49;31.10;91.90
20422;DHT22;10370;53.102;18.034;2023-07-08T06:29:11;27.80;95.80
20422;DHT22;10370;53.102;18.034;2023-07-08T06:34:37;25.40;99.90
20422;DHT22;10370;53.102;18.034;2023-07-08T06:39:59;24.50;99.90
20422;DHT22;10370;53.102;18.034;2023-07-08T06:45:22;23.90;99.90
20422;DHT22;10370;53.102;18.034;2023-07-08T06:50:48;23.60;99.90
20422;DHT22;10370;53.102;18.034;2023-07-08T06:56:11;23.60;99.90
20422;DHT22;10370;53.102;18.034;2023-07-08T07:01:34;23.60;99.90
20422;DHT22;10370;53.102;18.034;2023-07-08T07:06:56;23.20;99.90
20422;DHT22;10370;53.102;18.034;2023-07-08T07:12:19;23.40;99.90
20422;DHT22;10370;53.102;18.034;2023-07-08T07:17:41;23.50;99.90
20422;DHT22;10370;53.102;18.034;2023-07-08T07:23:05;23.80;99.90
20422;DHT22;10370;53.102;18.034;2023-07-08T07:28:27;23.90;99.90
20422;DHT22;10370;53.102;18.034;2023-07-08T07:33:50;24.10;99.90
20422;DHT22;10370;53.102;18.034;2023-07-08T07:39:13;24.20;99.90
20422;DHT22;10370;53.102;18.034;2023-07-08T07:44:35;24.20;99.90
20422;DHT22;10370;53.102;18.034;2023-07-08T07:49:58;24.20;99.90
20422;DHT22;10370;53.102;18.034;2023-07-08T07:55:21;24.20;99.90
20422;DHT22;10370;53.102;18.034;2023-07-08T08:00:45;24.20;99.70
20422;DHT22;10370;53.102;18.034;2023-07-08T08:06:07;24.30;99.90
20422;DHT22;10370;53.102;18.034;2023-07-08T08:11:31;24.30;97.60
20422;DHT22;10370;53.102;18.034;2023-07-08T08:16:53;24.40;98.00
20422;DHT22;10370;53.102;18.034;2023-07-08T08:22:16;24.50;95.10
20422;DHT22;10370;53.102;18.034;2023-07-08T08:27:38;24.50;93.70
20422;DHT22;10370;53.102;18.034;2023-07-08T08:33:01;24.60;94.50
20422;DHT22;10370;53.102;18.034;2023-07-08T08:38:25;24.70;93.50
20422;DHT22;10370;53.102;18.034;2023-07-08T08:43:48;24.60;96.10
20422;DHT22;10370;53.102;18.034;2023-07-08T08:49:27;24.70;94.80
20422;DHT22;10370;53.102;18.034;2023-07-08T08:54:50;24.80;95.90
20422;DHT22;10370;53.102;18.034;2023-07-08T09:00:18;24.90;96.00
20422;DHT22;10370;53.102;18.034;2023-07-08T09:05:47;25.00;95.50
20422;DHT22;10370;53.102;18.034;2023-07-08T09:17:31;25.20;95.10
20422;DHT22;10370;53.102;18.034;2023-07-08T09:23:23;25.30;96.00
20422;DHT22;10370;53.102;18.034;2023-07-08T09:28:47;25.70;93.80
20422;DHT22;10370;53.102;18.034;2023-07-08T09:34:21;25.80;92.70
20422;DHT22;10370;53.102;18.034;2023-07-08T09:39:44;25.80;92.20
20422;DHT22;10370;53.102;18.034;2023-07-08T09:45:16;25.60;90.90
20422;DHT22;10370;53.102;18.034;2023-07-08T09:50:44;25.60;91.60
20422;DHT22;10370;53.102;18.034;2023-07-08T09:56:08;25.60;90.00
20422;DHT22;10370;53.102;18.034;2023-07-08T10:01:32;25.60;90.80
20422;DHT22;10370;53.102;18.034;2023-07-08T10:06:55;25.80;92.20
20422;DHT22;10370;53.102;18.034;2023-07-08T10:12:18;26.00;91.20
20422;DHT22;10370;53.102;18.034;2023-07-08T10:17:42;26.10;91.00
20422;DHT22;10370;53.102;18.034;2023-07-08T10:34:42;26.00;80.10
20422;DHT22;10370;53.102;18.034;2023-07-08T10:40:19;26.20;79.70
20422;DHT22;10370;53.102;18.034;2023-07-08T10:58:02;26.30;79.40
20422;DHT22;10370;53.102;18.034;2023-07-08T11:09:04;26.30;75.80
20422;DHT22;10370;53.102;18.034;2023-07-08T11:14:42;26.50;78.10
20422;DHT22;10370;53.102;18.034;2023-07-08T11:20:21;26.30;76.40
20422;DHT22;10370;53.102;18.034;2023-07-08T11:25:46;26.40;78.90
20422;DHT22;10370;53.102;18.034;2023-07-08T11:31:11;26.60;78.10
20422;DHT22;10370;53.102;18.034;2023-07-08T11:36:35;26.60;75.60
20422;DHT22;10370;53.102;18.034;2023-07-08T11:42:22;26.60;72.90
20422;DHT22;10370;53.102;18.034;2023-07-08T11:47:47;26.70;75.50
20422;DHT22;10370;53.102;18.034;2023-07-08T11:53:13;26.60;77.00
20422;DHT22;10370;53.102;18.034;2023-07-08T11:58:59;26.70;77.50
20422;DHT22;10370;53.102;18.034;2023-07-08T12:04:28;26.90;78.00
20422;DHT22;10370;53.102;18.034;2023-07-08T12:09:59;26.90;77.90
20422;DHT22;10370;53.102;18.034;2023-07-08T12:15:32;27.00;74.20
20422;DHT22;10370;53.102;18.034;2023-07-08T12:20:59;27.10;75.50
20422;DHT22;10370;53.102;18.034;2023-07-08T12:26:24;27.00;77.40
20422;DHT22;10370;53.102;18.034;2023-07-08T12:31:47;27.00;77.30
20422;DHT22;10370;53.102;18.034;2023-07-08T12:37:12;27.10;75.10
20422;DHT22;10370;53.102;18.034;2023-07-08T12:42:35;27.00;75.00
20422;DHT22;10370;53.102;18.034;2023-07-08T12:47:58;27.10;73.70
20422;DHT22;10370;53.102;18.034;2023-07-08T12:53:21;27.20;72.00
20422;DHT22;10370;53.102;18.034;2023-07-08T12:58:48;27.10;73.50
20422;DHT22;10370;53.102;18.034;2023-07-08T13:04:14;27.10;75.60
20422;DHT22;10370;53.102;18.034;2023-07-08T13:09:40;27.20;72.30
20422;DHT22;10370;53.102;18.034;2023-07-08T13:15:06;27.20;70.90
20422;DHT22;10370;53.102;18.034;2023-07-08T13:20:32;27.30;72.20
20422;DHT22;10370;53.102;18.034;2023-07-08T13:25:58;27.20;71.40
20422;DHT22;10370;53.102;18.034;2023-07-08T13:31:22;27.30;73.00
20422;DHT22;10370;53.102;18.034;2023-07-08T13:36:50;27.30;73.40
20422;DHT22;10370;53.102;18.034;2023-07-08T13:42:13;27.30;73.70
20422;DHT22;10370;53.102;18.034;2023-07-08T13:47:36;27.20;73.30
20422;DHT22;10370;53.102;18.034;2023-07-08T13:53:00;27.30;74.20
20422;DHT22;10370;53.102;18.034;2023-07-08T13:58:27;27.40;72.90
20422;DHT22;10370;53.102;18.034;2023-07-08T14:03:52;27.60;75.60
20422;DHT22;10370;53.102;18.034;2023-07-08T14:09:19;27.60;75.20
20422;DHT22;10370;53.102;18.034;2023-07-08T14:14:42;27.40;75.90
20422;DHT22;10370;53.102;18.034;2023-07-08T14:20:15;27.50;75.20
20422;DHT22;10370;53.102;18.034;2023-07-08T14:25:38;27.60;77.40
20422;DHT22;10370;53.102;18.034;2023-07-08T14:31:01;27.50;76.20
20422;DHT22;10370;53.102;18.034;2023-07-08T14:36:24;27.50;77.10
20422;DHT22;10370;53.102;18.034;2023-07-08T14:41:48;27.40;77.20
20422;DHT22;10370;53.102;18.034;2023-07-08T14:47:14;27.50;78.40
20422;DHT22;10370;53.102;18.034;2023-07-08T14:52:37;27.60;80.00
20422;DHT22;10370;53.102;18.034;2023-07-08T14:58:00;27.60;78.80
20422;DHT22;10370;53.102;18.034;2023-07-08T15:03:24;27.60;78.50
20422;DHT22;10370;53.102;18.034;2023-07-08T15:08:47;27.50;78.10
20422;DHT22;10370;53.102;18.034;2023-07-08T15:14:24;27.80;76.40
20422;DHT22;10370;53.102;18.034;2023-07-08T15:19:47;27.90;77.70
20422;DHT22;10370;53.102;18.034;2023-07-08T15:25:12;27.80;77.70
20422;DHT22;10370;53.102;18.034;2023-07-08T15:30:35;27.70;77.00
20422;DHT22;10370;53.102;18.034;2023-07-08T15:35:59;27.60;78.10
20422;DHT22;10370;53.102;18.034;2023-07-08T15:41:24;27.70;77.90
20422;DHT22;10370;53.102;18.034;2023-07-08T15:46:48;27.80;78.70
20422;DHT22;10370;53.102;18.034;2023-07-08T15:52:13;27.60;78.00
20422;DHT22;10370;53.102;18.034;2023-07-08T15:58:00;27.60;77.50
20422;DHT22;10370;53.102;18.034;2023-07-08T16:03:26;27.60;77.80
20422;DHT22;10370;53.102;18.034;2023-07-08T16:08:49;27.60;77.50
20422;DHT22;10370;53.102;18.034;2023-07-08T16:14:16;27.50;78.20
20422;DHT22;10370;53.102;18.034;2023-07-08T16:19:40;27.50;78.80
20422;DHT22;10370;53.102;18.034;2023-07-08T16:25:03;27.60;77.80
20422;DHT22;10370;53.102;18.034;2023-07-08T16:30:27;27.50;78.90
20422;DHT22;10370;53.102;18.034;2023-07-08T16:35:50;27.50;78.80
20422;DHT22;10370;53.102;18.034;2023-07-08T16:41:14;27.40;77.70
20422;DHT22;10370;53.102;18.034;2023-07-08T16:46:38;27.30;79.30
20422;DHT22;10370;53.102;18.034;2023-07-08T16:52:00;27.20;78.00
20422;DHT22;10370;53.102;18.034;2023-07-08T16:57:23;27.20;78.90
20422;DHT22;10370;53.102;18.034;2023-07-08T17:02:48;27.10;78.40
20422;DHT22;10370;53.102;18.034;2023-07-08T17:08:17;27.10;79.90
20422;DHT22;10370;53.102;18.034;2023-07-08T17:13:40;27.00;77.70
20422;DHT22;10370;53.102;18.034;2023-07-08T17:19:03;26.90;77.80
20422;DHT22;10370;53.102;18.034;2023-07-08T17:24:26;26.80;79.80
20422;DHT22;10370;53.102;18.034;2023-07-08T17:29:48;26.80;78.30
20422;DHT22;10370;53.102;18.034;2023-07-08T17:35:14;26.70;78.30
20422;DHT22;10370;53.102;18.034;2023-07-08T17:40:36;26.60;79.60
20422;DHT22;10370;53.102;18.034;2023-07-08T17:46:02;26.50;78.70
20422;DHT22;10370;53.102;18.034;2023-07-08T17:51:26;26.40;78.70
20422;DHT22;10370;53.102;18.034;2023-07-08T17:56:52;26.30;78.50
20422;DHT22;10370;53.102;18.034;2023-07-08T18:02:17;26.30;78.00
20422;DHT22;10370;53.102;18.034;2023-07-08T18:07:41;26.20;79.20
20422;DHT22;10370;53.102;18.034;2023-07-08T18:13:11;26.10;79.70
20422;DHT22;10370;53.102;18.034;2023-07-08T18:18:40;26.00;80.30
20422;DHT22;10370;53.102;18.034;2023-07-08T18:24:03;25.70;86.80
20422;DHT22;10370;53.102;18.034;2023-07-08T18:29:26;25.30;90.70
20422;DHT22;10370;53.102;18.034;2023-07-08T18:34:48;24.90;91.70
20422;DHT22;10370;53.102;18.034;2023-07-08T18:40:16;24.70;92.50
20422;DHT22;10370;53.102;18.034;2023-07-08T18:45:39;24.50;93.60
20422;DHT22;10370;53.102;18.034;2023-07-08T18:51:04;24.40;93.60
20422;DHT22;10370;53.102;18.034;2023-07-08T18:56:30;24.20;94.40
20422;DHT22;10370;53.102;18.034;2023-07-08T19:01:53;24.00;94.90
20422;DHT22;10370;53.102;18.034;2023-07-08T19:07:16;23.70;95.70
20422;DHT22;10370;53.102;18.034;2023-07-08T19:12:41;23.50;96.10
20422;DHT22;10370;53.102;18.034;2023-07-08T19:18:03;23.40;96.50
20422;DHT22;10370;53.102;18.034;2023-07-08T19:23:27;23.10;97.10
20422;DHT22;10370;53.102;18.034;2023-07-08T19:28:51;23.10;97.40
20422;DHT22;10370;53.102;18.034;2023-07-08T19:34:15;22.90;98.20
20422;DHT22;10370;53.102;18.034;2023-07-08T19:39:39;22.60;98.70
20422;DHT22;10370;53.102;18.034;2023-07-08T19:45:02;22.50;99.20
20422;DHT22;10370;53.102;18.034;2023-07-08T19:50:27;22.40;99.60
20422;DHT22;10370;53.102;18.034;2023-07-08T19:55:50;22.20;99.90
20422;DHT22;10370;53.102;18.034;2023-07-08T20:01:14;22.10;99.90
20422;DHT22;10370;53.102;18.034;2023-07-08T20:06:37;22.00;99.90
20422;DHT22;10370;53.102;18.034;2023-07-08T20:12:03;21.90;99.90
20422;DHT22;10370;53.102;18.034;2023-07-08T20:17:26;21.70;99.90
20422;DHT22;10370;53.102;18.034;2023-07-08T20:22:50;21.40;99.90
20422;DHT22;10370;53.102;18.034;2023-07-08T20:28:14;21.30;99.90
20422;DHT22;10370;53.102;18.034;2023-07-08T20:33:37;21.20;99.90
20422;DHT22;10370;53.102;18.034;2023-07-08T20:39:01;21.10;99.90
20422;DHT22;10370;53.102;18.034;2023-07-08T20:44:26;21.00;99.90
20422;DHT22;10370;53.102;18.034;2023-07-08T20:49:50;20.90;99.90
20422;DHT22;10370;53.102;18.034;2023-07-08T20:55:15;20.80;99.90
20422;DHT22;10370;53.102;18.034;2023-07-08T21:00:38;20.70;99.90
20422;DHT22;10370;53.102;18.034;2023-07-08T21:06:01;20.60;99.90
20422;DHT22;10370;53.102;18.034;2023-07-08T21:11:25;20.40;99.90
20422;DHT22;10370;53.102;18.034;2023-07-08T21:16:49;20.20;99.90
20422;DHT22;10370;53.102;18.034;2023-07-08T21:22:12;20.10;99.90
20422;DHT22;10370;53.102;18.034;2023-07-08T21:27:35;20.00;99.90
20422;DHT22;10370;53.102;18.034;2023-07-08T21:32:57;20.00;99.90
20422;DHT22;10370;53.102;18.034;2023-07-08T21:38:20;19.90;99.90
20422;DHT22;10370;53.102;18.034;2023-07-08T21:43:44;19.60;99.90
20422;DHT22;10370;53.102;18.034;2023-07-08T21:49:07;19.50;99.90
20422;DHT22;10370;53.102;18.034;2023-07-08T21:54:32;19.40;99.90
20422;DHT22;10370;53.102;18.034;2023-07-08T21:59:55;19.30;99.90
20422;DHT22;10370;53.102;18.034;2023-07-08T22:05:20;19.30;99.90
20422;DHT22;10370;53.102;18.034;2023-07-08T22:10:46;19.20;99.90
20422;DHT22;10370;53.102;18.034;2023-07-08T22:16:17;19.00;99.90
20422;DHT22;10370;53.102;18.034;2023-07-08T22:21:40;18.80;99.90
20422;DHT22;10370;53.102;18.034;2023-07-08T22:27:03;18.70;99.90
20422;DHT22;10370;53.102;18.034;2023-07-08T22:32:28;18.60;99.90
20422;DHT22;10370;53.102;18.034;2023-07-08T22:37:51;18.30;99.90
20422;DHT22;10370;53.102;18.034;2023-07-08T22:43:23;18.30;99.90
20422;DHT22;10370;53.102;18.034;2023-07-08T22:48:47;18.20;99.90
20422;DHT22;10370;53.102;18.034;2023-07-08T22:54:14;18.10;99.90
20422;DHT22;10370;53.102;18.034;2023-07-08T22:59:42;17.90;99.90
20422;DHT22;10370;53.102;18.034;2023-07-08T23:05:06;17.60;99.90
20422;DHT22;10370;53.102;18.034;2023-07-08T23:10:29;17.40;99.90
20422;DHT22;10370;53.102;18.034;2023-07-08T23:15:51;17.20;99.90
20422;DHT22;10370;53.102;18.034;2023-07-08T23:21:16;17.10;99.90
20422;DHT22;10370;53.102;18.034;2023-07-08T23:26:41;16.90;99.90
20422;DHT22;10370;53.102;18.034;2023-07-08T23:32:05;16.70;99.90
20422;DHT22;10370;53.102;18.034;2023-07-08T23:37:28;16.60;99.90
20422;DHT22;10370;53.102;18.034;2023-07-08T23:42:53;16.50;99.90
20422;DHT22;10370;53.102;18.034;2023-07-08T23:48:18;16.40;99.90
20422;DHT22;10370;53.102;18.034;2023-07-08T23:53:41;16.30;99.90
20422;DHT22;10370;53.102;18.034;2023-07-08T23:59:04;16.20;99.90
